TWB493 RKPK-RKSS
Flight info
| Callsign | TWB493 |
|---|---|
| Flight time | 0h 41m |
| Altitude | 22000 |
| Route | ULSUK3 KALOD Y782 BITUX Z53 BASEM Y685 GUKDO GUKDO2U |
| Aircraft | B738/M-SDE2E3FGHIRWXY/LB1 |
Departure
| Time | 2026-04-27 10:19 |
|---|---|
| Airport | Gimhae International Airport (RKPK) |
Arrival
| Time | 2026-04-27 11:00 |
|---|---|
| Airport | Gimpo International Airport (RKSS) |
| Time | Latitude | Longitude | Altitude | Speed | Heading |
|---|---|---|---|---|---|
| 2026-04-27 10:19 | 35.13593 | 128.92464 | 2647 ft | 215 kts | 236° |
| 2026-04-27 10:19 | 35.12997 | 128.90714 | 3028 ft | 230 kts | 250° |
| 2026-04-27 10:19 | 35.12612 | 128.88709 | 3217 ft | 257 kts | 271° |
| 2026-04-27 10:19 | 35.13190 | 128.86684 | 4017 ft | 262 kts | 303° |
| 2026-04-27 10:20 | 35.14567 | 128.85194 | 4852 ft | 269 kts | 330° |
| 2026-04-27 10:20 | 35.16345 | 128.84437 | 5698 ft | 272 kts | 345° |
| 2026-04-27 10:20 | 35.18219 | 128.84014 | 6497 ft | 275 kts | 348° |
| 2026-04-27 10:20 | 35.20093 | 128.83664 | 7282 ft | 276 kts | 348° |
| 2026-04-27 10:21 | 35.22004 | 128.83310 | 8017 ft | 280 kts | 348° |
| 2026-04-27 10:21 | 35.23934 | 128.82941 | 8794 ft | 281 kts | 347° |
| 2026-04-27 10:21 | 35.25876 | 128.82572 | 9550 ft | 284 kts | 348° |
| 2026-04-27 10:21 | 35.27857 | 128.82197 | 10219 ft | 289 kts | 347° |
| 2026-04-27 10:22 | 35.29915 | 128.81788 | 10467 ft | 310 kts | 347° |
| 2026-04-27 10:22 | 35.32120 | 128.81332 | 10638 ft | 332 kts | 347° |
| 2026-04-27 10:22 | 35.34442 | 128.80839 | 10800 ft | 352 kts | 347° |
| 2026-04-27 10:22 | 35.36913 | 128.80310 | 11145 ft | 365 kts | 347° |
| 2026-04-27 10:23 | 35.39432 | 128.79767 | 11742 ft | 369 kts | 347° |
| 2026-04-27 10:23 | 35.41970 | 128.79218 | 12438 ft | 371 kts | 346° |
| 2026-04-27 10:23 | 35.44533 | 128.78661 | 13128 ft | 374 kts | 346° |
| 2026-04-27 10:23 | 35.47107 | 128.78098 | 13802 ft | 378 kts | 346° |
| 2026-04-27 10:24 | 35.49697 | 128.77475 | 14425 ft | 379 kts | 341° |
| 2026-04-27 10:24 | 35.52158 | 128.76412 | 15046 ft | 378 kts | 332° |
| 2026-04-27 10:24 | 35.54533 | 128.75007 | 15688 ft | 380 kts | 330° |
| 2026-04-27 10:24 | 35.56915 | 128.73553 | 16360 ft | 382 kts | 330° |
| 2026-04-27 10:25 | 35.59306 | 128.72093 | 16955 ft | 385 kts | 330° |
| 2026-04-27 10:25 | 35.61719 | 128.70631 | 17563 ft | 388 kts | 330° |
| 2026-04-27 10:25 | 35.64162 | 128.69162 | 18153 ft | 392 kts | 330° |
| 2026-04-27 10:25 | 35.66635 | 128.67682 | 18710 ft | 395 kts | 330° |
| 2026-04-27 10:26 | 35.69083 | 128.66221 | 19297 ft | 395 kts | 330° |
| 2026-04-27 10:26 | 35.71564 | 128.64741 | 19847 ft | 398 kts | 330° |
| 2026-04-27 10:26 | 35.74062 | 128.63251 | 20449 ft | 398 kts | 329° |
| 2026-04-27 10:26 | 35.76557 | 128.61761 | 21066 ft | 397 kts | 329° |
| 2026-04-27 10:27 | 35.79054 | 128.60256 | 21468 ft | 403 kts | 327° |
| 2026-04-27 10:27 | 35.81424 | 128.58456 | 21689 ft | 406 kts | 320° |
| 2026-04-27 10:27 | 35.83573 | 128.56215 | 21875 ft | 404 kts | 313° |
| 2026-04-27 10:27 | 35.85605 | 128.53800 | 21895 ft | 407 kts | 312° |
| 2026-04-27 10:28 | 35.87642 | 128.51332 | 21899 ft | 411 kts | 312° |
| 2026-04-27 10:28 | 35.89667 | 128.48877 | 21896 ft | 409 kts | 312° |
| 2026-04-27 10:28 | 35.91698 | 128.46428 | 21888 ft | 408 kts | 312° |
| 2026-04-27 10:28 | 35.93726 | 128.43993 | 21892 ft | 406 kts | 312° |
| 2026-04-27 10:29 | 35.95758 | 128.41561 | 21892 ft | 406 kts | 313° |
| 2026-04-27 10:29 | 35.97785 | 128.39139 | 21902 ft | 406 kts | 313° |
| 2026-04-27 10:29 | 35.99816 | 128.36714 | 21895 ft | 406 kts | 312° |
| 2026-04-27 10:29 | 36.01855 | 128.34279 | 21896 ft | 407 kts | 313° |
| 2026-04-27 10:30 | 36.03894 | 128.31841 | 21894 ft | 408 kts | 313° |
| 2026-04-27 10:30 | 36.05941 | 128.29392 | 21904 ft | 410 kts | 313° |
| 2026-04-27 10:30 | 36.07968 | 128.26966 | 21903 ft | 411 kts | 313° |
| 2026-04-27 10:30 | 36.10020 | 128.24506 | 21893 ft | 411 kts | 312° |
| 2026-04-27 10:31 | 36.12082 | 128.22035 | 21894 ft | 412 kts | 313° |
| 2026-04-27 10:31 | 36.14142 | 128.19562 | 21886 ft | 412 kts | 313° |
| 2026-04-27 10:31 | 36.16180 | 128.17115 | 21887 ft | 412 kts | 312° |
| 2026-04-27 10:31 | 36.18244 | 128.14634 | 21897 ft | 411 kts | 313° |
| 2026-04-27 10:32 | 36.20295 | 128.12167 | 21892 ft | 411 kts | 312° |
| 2026-04-27 10:32 | 36.22353 | 128.09689 | 21897 ft | 411 kts | 312° |
| 2026-04-27 10:32 | 36.24410 | 128.07214 | 21897 ft | 412 kts | 313° |
| 2026-04-27 10:32 | 36.26651 | 128.05044 | 21892 ft | 417 kts | 325° |
| 2026-04-27 10:33 | 36.29261 | 128.03419 | 21901 ft | 423 kts | 333° |
| 2026-04-27 10:33 | 36.32087 | 128.02328 | 21885 ft | 431 kts | 344° |
| 2026-04-27 10:33 | 36.35086 | 128.01846 | 21902 ft | 434 kts | 349° |
| 2026-04-27 10:33 | 36.38100 | 128.01479 | 21894 ft | 435 kts | 349° |
| 2026-04-27 10:34 | 36.41115 | 128.01121 | 21885 ft | 435 kts | 349° |
| 2026-04-27 10:34 | 36.44125 | 128.00743 | 21891 ft | 434 kts | 349° |
| 2026-04-27 10:34 | 36.47090 | 128.00350 | 21898 ft | 433 kts | 348° |
| 2026-04-27 10:34 | 36.50090 | 127.99937 | 21892 ft | 433 kts | 348° |
| 2026-04-27 10:35 | 36.53089 | 127.99520 | 21886 ft | 433 kts | 348° |
| 2026-04-27 10:35 | 36.56087 | 127.99103 | 21896 ft | 433 kts | 348° |
| 2026-04-27 10:35 | 36.59094 | 127.98692 | 21892 ft | 433 kts | 349° |
| 2026-04-27 10:35 | 36.62065 | 127.98295 | 21898 ft | 433 kts | 349° |
| 2026-04-27 10:36 | 36.65065 | 127.97896 | 21889 ft | 433 kts | 348° |
| 2026-04-27 10:36 | 36.68073 | 127.97494 | 21902 ft | 433 kts | 349° |
| 2026-04-27 10:36 | 36.71076 | 127.97091 | 21894 ft | 434 kts | 349° |
| 2026-04-27 10:36 | 36.74077 | 127.96690 | 21878 ft | 434 kts | 349° |
| 2026-04-27 10:37 | 36.77090 | 127.96286 | 21902 ft | 435 kts | 349° |
| 2026-04-27 10:37 | 36.80069 | 127.95873 | 21890 ft | 435 kts | 347° |
| 2026-04-27 10:37 | 36.82972 | 127.94830 | 21882 ft | 426 kts | 330° |
| 2026-04-27 10:37 | 36.85417 | 127.92896 | 21896 ft | 419 kts | 317° |
| 2026-04-27 10:38 | 36.87383 | 127.90277 | 21890 ft | 405 kts | 303° |
| 2026-04-27 10:38 | 36.88925 | 127.87419 | 21878 ft | 391 kts | 301° |
| 2026-04-27 10:38 | 36.90438 | 127.84592 | 21889 ft | 389 kts | 301° |
| 2026-04-27 10:38 | 36.91957 | 127.81824 | 21885 ft | 384 kts | 302° |
| 2026-04-27 10:39 | 36.93494 | 127.79067 | 21610 ft | 387 kts | 302° |
| 2026-04-27 10:39 | 36.95037 | 127.76334 | 21127 ft | 382 kts | 303° |
| 2026-04-27 10:39 | 36.96568 | 127.73633 | 20585 ft | 379 kts | 303° |
| 2026-04-27 10:39 | 36.98068 | 127.70983 | 20069 ft | 375 kts | 303° |
| 2026-04-27 10:40 | 36.99571 | 127.68320 | 19554 ft | 372 kts | 303° |
| 2026-04-27 10:40 | 37.01072 | 127.65695 | 19038 ft | 370 kts | 307° |
| 2026-04-27 10:40 | 37.02952 | 127.63490 | 18552 ft | 373 kts | 323° |
| 2026-04-27 10:40 | 37.05220 | 127.61964 | 18351 ft | 366 kts | 331° |
| 2026-04-27 10:41 | 37.07514 | 127.60663 | 18162 ft | 356 kts | 332° |
| 2026-04-27 10:41 | 37.09725 | 127.59427 | 17995 ft | 346 kts | 332° |
| 2026-04-27 10:41 | 37.11888 | 127.58186 | 17832 ft | 336 kts | 331° |
| 2026-04-27 10:41 | 37.13975 | 127.56967 | 17680 ft | 326 kts | 331° |
| 2026-04-27 10:42 | 37.15995 | 127.55757 | 17549 ft | 315 kts | 327° |
| 2026-04-27 10:42 | 37.17667 | 127.54095 | 17276 ft | 304 kts | 307° |
| 2026-04-27 10:42 | 37.18895 | 127.51995 | 16974 ft | 299 kts | 302° |
| 2026-04-27 10:42 | 37.20068 | 127.49835 | 16637 ft | 298 kts | 302° |
| 2026-04-27 10:43 | 37.21234 | 127.47700 | 16317 ft | 296 kts | 303° |
| 2026-04-27 10:43 | 37.22405 | 127.45577 | 16008 ft | 294 kts | 303° |
| 2026-04-27 10:43 | 37.23078 | 127.44361 | 15825 ft | 293 kts | 303° |
| 2026-04-27 10:43 | 37.24241 | 127.42262 | 15499 ft | 292 kts | 303° |
| 2026-04-27 10:44 | 37.25407 | 127.40162 | 15177 ft | 291 kts | 303° |
| 2026-04-27 10:44 | 37.26560 | 127.38084 | 14874 ft | 289 kts | 303° |
| 2026-04-27 10:44 | 37.27713 | 127.36004 | 14557 ft | 288 kts | 303° |
| 2026-04-27 10:44 | 37.28843 | 127.33964 | 14246 ft | 288 kts | 303° |
| 2026-04-27 10:45 | 37.29985 | 127.31902 | 13935 ft | 287 kts | 303° |
| 2026-04-27 10:45 | 37.31121 | 127.29850 | 13628 ft | 285 kts | 303° |
| 2026-04-27 10:45 | 37.32255 | 127.27800 | 13275 ft | 285 kts | 303° |
| 2026-04-27 10:45 | 37.33382 | 127.25761 | 12963 ft | 284 kts | 303° |
| 2026-04-27 10:46 | 37.34507 | 127.23727 | 12633 ft | 282 kts | 303° |
| 2026-04-27 10:46 | 37.35622 | 127.21707 | 12328 ft | 281 kts | 303° |
| 2026-04-27 10:46 | 37.36512 | 127.19552 | 12001 ft | 277 kts | 285° |
| 2026-04-27 10:46 | 37.36963 | 127.17214 | 11727 ft | 274 kts | 282° |
| 2026-04-27 10:47 | 37.37373 | 127.14894 | 11422 ft | 274 kts | 281° |
| 2026-04-27 10:47 | 37.37786 | 127.12550 | 11131 ft | 272 kts | 281° |
| 2026-04-27 10:47 | 37.38198 | 127.10240 | 10890 ft | 269 kts | 281° |
| 2026-04-27 10:47 | 37.38610 | 127.07951 | 10601 ft | 268 kts | 282° |
| 2026-04-27 10:48 | 37.39023 | 127.05672 | 10312 ft | 267 kts | 281° |
| 2026-04-27 10:48 | 37.39432 | 127.03421 | 10162 ft | 259 kts | 282° |
| 2026-04-27 10:48 | 37.39830 | 127.01246 | 10044 ft | 252 kts | 282° |
| 2026-04-27 10:48 | 37.40223 | 126.99092 | 9779 ft | 252 kts | 282° |
| 2026-04-27 10:49 | 37.40608 | 126.96977 | 9504 ft | 251 kts | 282° |
| 2026-04-27 10:49 | 37.41002 | 126.94818 | 9225 ft | 249 kts | 282° |
| 2026-04-27 10:49 | 37.41393 | 126.92729 | 8974 ft | 247 kts | 285° |
| 2026-04-27 10:49 | 37.41796 | 126.91357 | 8869 ft | 247 kts | 291° |
| 2026-04-27 10:50 | 37.42761 | 126.88705 | 8673 ft | 257 kts | 293° |
| 2026-04-27 10:50 | 37.43518 | 126.86640 | 8498 ft | 262 kts | 293° |
| 2026-04-27 10:50 | 37.44022 | 126.85238 | 8390 ft | 264 kts | 292° |
| 2026-04-27 10:50 | 37.44769 | 126.83138 | 8222 ft | 265 kts | 292° |
| 2026-04-27 10:51 | 37.45769 | 126.80296 | 7980 ft | 267 kts | 291° |
| 2026-04-27 10:51 | 37.46428 | 126.78120 | 7766 ft | 264 kts | 288° |
| 2026-04-27 10:51 | 37.47025 | 126.75950 | 7550 ft | 261 kts | 288° |
| 2026-04-27 10:51 | 37.47416 | 126.74527 | 7411 ft | 258 kts | 288° |
| 2026-04-27 10:52 | 37.48006 | 126.72394 | 7208 ft | 256 kts | 288° |
| 2026-04-27 10:52 | 37.48593 | 126.70278 | 7006 ft | 256 kts | 287° |
| 2026-04-27 10:52 | 37.49052 | 126.67366 | 6704 ft | 256 kts | 276° |
| 2026-04-27 10:52 | 37.49198 | 126.65860 | 6547 ft | 257 kts | 276° |
| 2026-04-27 10:53 | 37.49419 | 126.63622 | 6309 ft | 258 kts | 276° |
| 2026-04-27 10:53 | 37.50244 | 126.59277 | 5794 ft | 261 kts | 302° |
| 2026-04-27 10:53 | 37.51418 | 126.57550 | 5577 ft | 259 kts | 312° |
| 2026-04-27 10:54 | 37.52700 | 126.55965 | 5325 ft | 257 kts | 313° |
| 2026-04-27 10:54 | 37.53978 | 126.54399 | 5080 ft | 254 kts | 313° |
| 2026-04-27 10:54 | 37.55353 | 126.53016 | 4825 ft | 256 kts | 332° |
| 2026-04-27 10:54 | 37.57059 | 126.52583 | 4746 ft | 247 kts | 1° |
| 2026-04-27 10:55 | 37.58662 | 126.53168 | 4648 ft | 236 kts | 27° |
| 2026-04-27 10:55 | 37.59925 | 126.54390 | 4545 ft | 223 kts | 42° |
| 2026-04-27 10:55 | 37.60999 | 126.55744 | 4193 ft | 221 kts | 44° |
| 2026-04-27 10:55 | 37.62083 | 126.57145 | 3833 ft | 221 kts | 44° |
| 2026-04-27 10:56 | 37.63138 | 126.58494 | 3563 ft | 216 kts | 43° |
| 2026-04-27 10:56 | 37.64181 | 126.59815 | 3341 ft | 209 kts | 43° |
| 2026-04-27 10:56 | 37.65188 | 126.61085 | 3147 ft | 201 kts | 43° |
| 2026-04-27 10:56 | 37.66162 | 126.62324 | 2950 ft | 194 kts | 46° |
| 2026-04-27 10:57 | 37.66687 | 126.63856 | 2743 ft | 193 kts | 91° |
| 2026-04-27 10:57 | 37.66214 | 126.65375 | 2659 ft | 190 kts | 133° |
| 2026-04-27 10:57 | 37.65344 | 126.66689 | 2377 ft | 196 kts | 132° |
| 2026-04-27 10:57 | 37.64453 | 126.67943 | 2106 ft | 188 kts | 136° |
| 2026-04-27 10:58 | 37.63577 | 126.69059 | 1881 ft | 175 kts | 137° |
| 2026-04-27 10:58 | 37.62729 | 126.70124 | 1644 ft | 169 kts | 137° |
| 2026-04-27 10:58 | 37.61899 | 126.71168 | 1420 ft | 167 kts | 137° |
| 2026-04-27 10:58 | 37.61091 | 126.72186 | 1202 ft | 161 kts | 136° |
| 2026-04-27 10:59 | 37.60311 | 126.73168 | 1006 ft | 159 kts | 137° |
| 2026-04-27 10:59 | 37.59538 | 126.74129 | 825 ft | 153 kts | 136° |
| 2026-04-27 10:59 | 37.58796 | 126.75064 | 632 ft | 148 kts | 135° |
| 2026-04-27 11:00 | 37.57389 | 126.76848 | 251 ft | 141 kts | 133° |
| 2026-04-27 11:00 | 37.56702 | 126.77712 | 69 ft | 138 kts | 133° |
| 2026-04-27 11:00 | 37.56114 | 126.78453 | 53 ft | 91 kts | 135° |
| 2026-04-27 11:00 | 37.55814 | 126.78831 | 53 ft | 38 kts | 135° |
| 2026-04-27 11:01 | 37.55646 | 126.79044 | 60 ft | 30 kts | 135° |
| 2026-04-27 11:01 | 37.55512 | 126.79231 | 59 ft | 28 kts | 122° |
| 2026-04-27 11:01 | 37.55444 | 126.79454 | 59 ft | 27 kts | 104° |
| 2026-04-27 11:01 | 37.55459 | 126.79671 | 60 ft | 25 kts | 57° |
| 2026-04-27 11:02 | 37.55500 | 126.79785 | 62 ft | 13 kts | 88° |
| 2026-04-27 11:02 | 37.55472 | 126.79890 | 58 ft | 13 kts | 111° |
| 2026-04-27 11:02 | 37.55440 | 126.79991 | 62 ft | 12 kts | 111° |
| 2026-04-27 11:02 | 37.55430 | 126.80094 | 64 ft | 12 kts | 80° |
| 2026-04-27 11:03 | 37.55471 | 126.80182 | 59 ft | 12 kts | 45° |
| 2026-04-27 11:03 | 37.55528 | 126.80253 | 62 ft | 11 kts | 45° |
| 2026-04-27 11:03 | 37.55569 | 126.80332 | 61 ft | 7 kts | 78° |
| 2026-04-27 11:03 | 37.55594 | 126.80385 | 63 ft | 7 kts | 44° |
| 2026-04-27 11:04 | 37.55628 | 126.80427 | 62 ft | 7 kts | 45° |
| 2026-04-27 11:04 | 37.55644 | 126.80446 | 62 ft | 2 kts | 45° |
| 2026-04-27 11:04 | 37.55655 | 126.80460 | 66 ft | 2 kts | 45° |
| 2026-04-27 11:04 | 37.55658 | 126.80464 | 57 ft | 0 kts | 45° |